createdAt,value
2023-04-26T00:01:31.635Z,4.90
2023-04-26T00:03:58.426Z,4.90
2023-04-26T00:06:27.303Z,4.70
2023-04-26T00:08:54.366Z,5.00
2023-04-26T00:11:21.385Z,4.80
2023-04-26T00:13:47.996Z,4.80
2023-04-26T00:16:14.876Z,4.60
2023-04-26T00:18:41.515Z,4.60
2023-04-26T00:21:08.218Z,4.50
2023-04-26T00:23:36.518Z,4.60
2023-04-26T00:26:03.417Z,4.60
2023-04-26T00:28:30.108Z,4.50
2023-04-26T00:30:57.760Z,4.40
2023-04-26T00:33:24.727Z,4.50
2023-04-26T00:35:51.443Z,4.30
2023-04-26T00:38:18.310Z,4.40
2023-04-26T00:40:44.980Z,4.40
2023-04-26T00:43:11.900Z,4.40
2023-04-26T00:45:39.022Z,4.40
2023-04-26T00:48:06.041Z,4.40
2023-04-26T00:50:33.161Z,4.20
2023-04-26T00:53:02.065Z,4.30
2023-04-26T00:55:28.804Z,4.30
2023-04-26T00:57:55.697Z,4.30
2023-04-26T01:00:22.843Z,4.40
2023-04-26T01:02:49.630Z,4.30
2023-04-26T01:05:16.575Z,4.30
2023-04-26T01:07:43.589Z,4.30
2023-04-26T01:10:10.954Z,4.30
2023-04-26T01:12:38.918Z,4.30
2023-04-26T01:15:06.448Z,4.40
2023-04-26T01:17:33.671Z,4.90
2023-04-26T01:20:00.456Z,4.40
2023-04-26T01:22:28.337Z,4.40
2023-04-26T01:24:56.304Z,4.50
2023-04-26T01:27:23.028Z,4.60
2023-04-26T01:29:49.790Z,4.60
2023-04-26T01:32:16.663Z,4.70
2023-04-26T01:34:43.323Z,4.70
2023-04-26T01:37:10.070Z,4.70
2023-04-26T01:39:36.734Z,4.80
2023-04-26T01:42:04.745Z,4.70
2023-04-26T01:44:31.744Z,4.80
2023-04-26T01:46:58.379Z,4.80
2023-04-26T01:49:25.249Z,4.80
2023-04-26T01:51:52.008Z,4.70
2023-04-26T01:54:18.668Z,4.70
2023-04-26T01:56:45.257Z,4.60
2023-04-26T01:59:12.192Z,4.60
2023-04-26T02:01:41.159Z,4.60
2023-04-26T02:04:07.846Z,4.60
2023-04-26T02:06:34.494Z,4.50
2023-04-26T02:09:01.274Z,4.50
2023-04-26T02:11:27.995Z,4.50
2023-04-26T02:13:54.725Z,4.40
2023-04-26T02:16:21.782Z,4.30
2023-04-26T02:18:53.508Z,4.30
2023-04-26T02:21:21.487Z,4.20
2023-04-26T02:23:48.173Z,4.20
2023-04-26T02:26:15.341Z,4.20
2023-04-26T02:28:42.301Z,4.20
2023-04-26T02:31:09.322Z,4.20
2023-04-26T02:33:36.085Z,4.10
2023-04-26T02:36:05.047Z,4.10
2023-04-26T02:38:34.589Z,4.00
2023-04-26T02:41:02.563Z,4.10
2023-04-26T02:43:29.587Z,4.00
2023-04-26T02:45:58.697Z,4.00
2023-04-26T02:48:25.688Z,4.10
2023-04-26T02:50:53.212Z,4.10
2023-04-26T02:53:19.904Z,4.00
2023-04-26T02:55:46.695Z,4.10
2023-04-26T02:58:13.421Z,4.10
2023-04-26T03:00:46.165Z,4.20
2023-04-26T03:03:13.073Z,4.30
2023-04-26T03:05:40.051Z,4.20
2023-04-26T03:08:07.061Z,4.30
2023-04-26T03:10:34.003Z,4.30
2023-04-26T03:13:00.687Z,4.10
2023-04-26T03:15:27.401Z,4.10
2023-04-26T03:17:54.024Z,4.00
2023-04-26T03:20:20.879Z,3.90
2023-04-26T03:22:47.530Z,3.80
2023-04-26T03:25:15.694Z,3.80
2023-04-26T03:27:42.551Z,3.60
2023-04-26T03:30:09.499Z,3.70
2023-04-26T03:32:36.226Z,3.60
2023-04-26T03:35:02.947Z,3.60
2023-04-26T03:37:29.663Z,3.60
2023-04-26T03:39:56.461Z,3.60
2023-04-26T03:42:23.137Z,3.50
2023-04-26T03:44:49.857Z,3.50
2023-04-26T03:47:16.494Z,3.50
2023-04-26T03:49:43.163Z,3.40
2023-04-26T03:52:09.824Z,3.40
2023-04-26T03:54:36.451Z,3.50
2023-04-26T03:57:03.210Z,3.40
2023-04-26T03:59:30.144Z,3.30
2023-04-26T04:01:56.750Z,3.40
2023-04-26T04:04:23.804Z,3.30
2023-04-26T04:06:51.200Z,3.30
2023-04-26T04:09:17.980Z,3.30
2023-04-26T04:11:45.789Z,3.40
2023-04-26T04:14:14.081Z,3.40
2023-04-26T04:16:40.749Z,3.40
2023-04-26T04:19:07.559Z,3.40
2023-04-26T04:21:34.515Z,3.30
2023-04-26T04:24:01.373Z,3.20
2023-04-26T04:26:28.203Z,3.20
2023-04-26T04:28:55.406Z,3.10
2023-04-26T04:31:22.954Z,3.10
2023-04-26T04:33:49.667Z,3.10
2023-04-26T04:36:19.070Z,3.00
2023-04-26T04:38:45.650Z,3.00
2023-04-26T04:41:12.287Z,3.00
2023-04-26T04:43:38.950Z,3.00
2023-04-26T04:46:05.783Z,3.10
2023-04-26T04:48:33.506Z,3.20
2023-04-26T04:51:00.198Z,3.00
2023-04-26T04:53:27.066Z,3.00
2023-04-26T04:55:53.769Z,3.00
2023-04-26T04:58:22.087Z,3.00
2023-04-26T05:00:49.065Z,3.00
2023-04-26T05:03:15.889Z,3.00
2023-04-26T05:05:42.586Z,3.00
2023-04-26T05:08:09.287Z,3.00
2023-04-26T05:10:36.123Z,3.20
2023-04-26T05:13:02.866Z,3.20
2023-04-26T05:15:29.726Z,3.20
2023-04-26T05:17:56.596Z,3.20
2023-04-26T05:20:23.353Z,3.30
2023-04-26T05:22:49.962Z,3.30
2023-04-26T05:25:17.520Z,3.30
2023-04-26T05:27:45.842Z,3.40
2023-04-26T05:30:12.867Z,3.10
2023-04-26T05:32:39.582Z,3.50
2023-04-26T05:35:06.747Z,3.60
2023-04-26T05:37:34.471Z,3.60
2023-04-26T05:40:01.265Z,3.60
2023-04-26T05:42:27.913Z,3.70
2023-04-26T05:44:58.946Z,3.80
2023-04-26T05:47:26.234Z,3.90
2023-04-26T05:49:53.090Z,4.00
2023-04-26T05:52:19.740Z,4.00
2023-04-26T05:54:46.444Z,4.00
2023-04-26T05:57:13.389Z,4.10
2023-04-26T05:59:40.531Z,4.10
2023-04-26T06:02:07.388Z,4.20
2023-04-26T06:04:34.190Z,4.30
2023-04-26T06:07:01.167Z,4.40
2023-04-26T06:09:27.821Z,4.50
2023-04-26T06:11:54.928Z,4.70
2023-04-26T06:14:30.083Z,4.70
2023-04-26T06:16:58.043Z,4.80
2023-04-26T06:19:24.907Z,4.80
2023-04-26T06:21:55.429Z,4.80
2023-04-26T06:24:25.271Z,4.90
2023-04-26T06:26:52.306Z,5.00
2023-04-26T06:29:18.916Z,5.20
2023-04-26T06:31:46.030Z,5.40
2023-04-26T06:34:12.665Z,5.80
2023-04-26T06:36:39.318Z,5.90
2023-04-26T06:39:06.249Z,6.00
2023-04-26T06:41:32.979Z,6.10
2023-04-26T06:43:59.636Z,6.20
2023-04-26T06:46:26.727Z,6.30
2023-04-26T06:48:55.343Z,6.50
2023-04-26T06:51:22.260Z,6.90
2023-04-26T06:53:49.277Z,7.30
2023-04-26T06:56:15.946Z,7.80
2023-04-26T06:59:01.812Z,8.00
2023-04-26T07:01:29.504Z,8.30
2023-04-26T07:03:57.613Z,8.40
2023-04-26T07:06:26.147Z,8.20
2023-04-26T07:08:53.245Z,8.40
2023-04-26T07:11:20.886Z,8.60
2023-04-26T07:13:47.781Z,8.50
2023-04-26T07:16:14.458Z,8.50
2023-04-26T07:18:41.590Z,8.10
2023-04-26T07:21:08.596Z,7.60
2023-04-26T07:23:35.966Z,7.70
2023-04-26T07:26:04.331Z,7.90
2023-04-26T07:28:31.766Z,7.90
2023-04-26T07:30:59.978Z,8.10
2023-04-26T07:33:26.845Z,8.30
2023-04-26T07:35:56.270Z,8.50
2023-04-26T07:38:23.888Z,8.90
2023-04-26T07:40:51.398Z,9.00
2023-04-26T07:43:19.057Z,9.00
2023-04-26T07:45:45.691Z,9.20
2023-04-26T07:48:12.833Z,9.40
2023-04-26T07:50:39.543Z,9.50
2023-04-26T07:53:06.255Z,9.60
2023-04-26T07:55:32.880Z,9.60
2023-04-26T07:57:59.514Z,9.60
2023-04-26T08:00:26.289Z,9.50
2023-04-26T08:02:52.992Z,10.00
2023-04-26T08:05:20.002Z,10.40
2023-04-26T08:07:46.919Z,10.90
2023-04-26T08:10:13.688Z,10.80
2023-04-26T08:12:40.403Z,11.00
2023-04-26T08:15:08.201Z,11.00
2023-04-26T08:17:34.934Z,11.00
2023-04-26T08:20:01.648Z,11.30
2023-04-26T08:22:28.497Z,11.10
2023-04-26T08:24:56.028Z,11.00
2023-04-26T08:27:23.162Z,11.30
2023-04-26T08:29:49.806Z,11.40
2023-04-26T08:32:16.435Z,11.40
2023-04-26T08:34:43.616Z,11.20
2023-04-26T08:37:11.075Z,10.80
2023-04-26T08:39:37.791Z,11.00
2023-04-26T08:42:15.261Z,11.50
2023-04-26T08:44:43.741Z,12.10
2023-04-26T08:47:17.787Z,12.30
2023-04-26T08:49:47.664Z,12.10
2023-04-26T08:52:17.102Z,11.20
2023-04-26T08:54:46.690Z,11.50
2023-04-26T08:57:13.674Z,11.30
2023-04-26T08:59:40.766Z,10.90
2023-04-26T09:02:09.812Z,11.40
2023-04-26T09:04:37.456Z,11.60
2023-04-26T09:07:07.179Z,12.00
2023-04-26T09:09:42.307Z,12.20
2023-04-26T09:12:09.226Z,12.60
2023-04-26T09:14:35.932Z,12.90
2023-04-26T09:17:02.633Z,13.50
2023-04-26T09:19:40.207Z,14.20
2023-04-26T09:22:07.314Z,13.40
2023-04-26T09:24:47.066Z,12.70
2023-04-26T09:27:14.187Z,12.20
2023-04-26T09:29:41.340Z,11.80
2023-04-26T09:32:09.226Z,11.60
2023-04-26T09:34:46.967Z,10.90
2023-04-26T09:37:16.905Z,10.90
2023-04-26T09:39:43.589Z,10.50
2023-04-26T09:42:13.852Z,10.20
2023-04-26T09:44:40.730Z,10.10
2023-04-26T09:47:10.377Z,9.70
2023-04-26T09:49:51.545Z,9.90
2023-04-26T09:52:19.109Z,9.90
2023-04-26T09:54:53.871Z,9.60
2023-04-26T09:57:24.876Z,10.10
2023-04-26T09:59:55.298Z,10.30
2023-04-26T10:02:26.495Z,11.00
2023-04-26T10:04:55.281Z,12.50
2023-04-26T10:07:24.362Z,13.50
2023-04-26T10:09:51.806Z,13.40
2023-04-26T10:12:20.093Z,13.40
2023-04-26T10:14:47.309Z,14.10
2023-04-26T10:17:14.470Z,14.40
2023-04-26T10:19:46.470Z,14.10
2023-04-26T10:22:32.216Z,14.50
2023-04-26T10:24:59.048Z,14.60
2023-04-26T10:27:43.833Z,15.10
2023-04-26T10:30:13.791Z,15.00
2023-04-26T10:32:53.086Z,14.00
2023-04-26T10:35:21.677Z,13.60
2023-04-26T10:38:00.407Z,13.50
2023-04-26T10:40:36.075Z,13.60
2023-04-26T10:43:08.832Z,13.90
2023-04-26T10:45:36.846Z,13.60
2023-04-26T10:48:20.147Z,13.30
2023-04-26T10:51:02.185Z,12.60
2023-04-26T10:53:29.694Z,12.40
2023-04-26T10:55:56.724Z,12.00
2023-04-26T10:58:31.591Z,12.30
2023-04-26T11:01:08.430Z,12.30
2023-04-26T11:03:36.050Z,12.40
2023-04-26T11:06:15.699Z,12.30
2023-04-26T11:08:43.180Z,12.30
2023-04-26T11:11:13.462Z,12.30
2023-04-26T11:13:41.926Z,12.40
2023-04-26T11:16:16.779Z,12.20
2023-04-26T11:18:47.748Z,11.70
2023-04-26T11:21:17.938Z,11.60
2023-04-26T11:23:53.788Z,11.60
2023-04-26T11:26:20.319Z,11.40
2023-04-26T11:28:48.914Z,10.90
2023-04-26T11:31:15.593Z,10.70
2023-04-26T11:33:42.257Z,10.50
2023-04-26T11:36:08.991Z,10.60
2023-04-26T11:38:35.722Z,10.40
2023-04-26T11:41:03.861Z,10.30
2023-04-26T11:43:38.619Z,10.30
2023-04-26T11:46:06.766Z,10.20
2023-04-26T11:48:36.174Z,10.20
2023-04-26T11:51:07.359Z,10.20
2023-04-26T11:53:38.920Z,10.10
2023-04-26T11:56:21.715Z,10.20
2023-04-26T11:58:50.396Z,10.30
2023-04-26T12:01:22.248Z,10.30
2023-04-26T12:03:53.675Z,10.50
2023-04-26T12:06:25.725Z,10.60
2023-04-26T12:08:52.517Z,10.70
2023-04-26T12:11:19.926Z,11.00
2023-04-26T12:13:47.484Z,11.10
2023-04-26T12:16:25.718Z,11.40
2023-04-26T12:18:54.861Z,11.60
2023-04-26T12:21:21.525Z,11.80
2023-04-26T12:23:49.099Z,11.90
2023-04-26T12:26:16.379Z,12.10
2023-04-26T12:28:43.475Z,12.40
2023-04-26T12:31:10.425Z,12.90
2023-04-26T12:33:37.231Z,13.20
2023-04-26T12:36:11.832Z,13.50
2023-04-26T12:38:39.681Z,13.50
2023-04-26T12:41:06.413Z,13.20
2023-04-26T12:43:33.206Z,13.20
2023-04-26T12:46:00.643Z,13.20
2023-04-26T12:48:28.173Z,12.80
2023-04-26T12:50:54.911Z,12.80
2023-04-26T12:53:21.709Z,12.30
2023-04-26T12:55:48.340Z,12.20
2023-04-26T12:58:15.205Z,11.80
2023-04-26T13:00:44.387Z,11.70
2023-04-26T13:03:15.138Z,11.70
2023-04-26T13:05:42.016Z,11.70
2023-04-26T13:08:08.966Z,11.90
2023-04-26T13:10:35.970Z,11.80
2023-04-26T13:13:02.718Z,11.60
2023-04-26T13:15:29.870Z,11.80
2023-04-26T13:17:56.686Z,11.60
2023-04-26T13:20:25.708Z,11.60
2023-04-26T13:22:53.422Z,11.50
2023-04-26T13:25:20.335Z,11.60
2023-04-26T13:27:46.988Z,11.40
2023-04-26T13:30:14.224Z,11.30
2023-04-26T13:32:41.146Z,11.20
2023-04-26T13:35:08.253Z,11.10
2023-04-26T13:37:34.953Z,11.10
2023-04-26T13:40:01.766Z,11.10
2023-04-26T13:42:28.574Z,11.10
2023-04-26T13:44:55.283Z,11.10
2023-04-26T13:47:21.991Z,11.00
2023-04-26T13:49:48.738Z,10.80
2023-04-26T13:52:15.542Z,11.00
2023-04-26T13:54:42.268Z,11.10
2023-04-26T13:57:08.923Z,11.20
2023-04-26T13:59:35.550Z,11.20
2023-04-26T14:02:02.259Z,11.40
2023-04-26T14:04:29.072Z,11.50
2023-04-26T14:06:55.873Z,11.40
2023-04-26T14:09:22.484Z,11.50
2023-04-26T14:11:57.079Z,11.50
2023-04-26T14:14:27.482Z,11.40
2023-04-26T14:16:54.135Z,11.50
2023-04-26T14:19:21.400Z,11.60
2023-04-26T14:21:48.006Z,11.70
2023-04-26T14:24:14.629Z,12.00
2023-04-26T14:26:41.865Z,12.00
2023-04-26T14:29:08.672Z,11.80
2023-04-26T14:31:35.527Z,11.90
2023-04-26T14:34:02.204Z,12.00
2023-04-26T14:36:28.810Z,12.30
2023-04-26T14:38:55.572Z,12.40
2023-04-26T14:41:22.942Z,12.50
2023-04-26T14:43:50.656Z,12.30
2023-04-26T14:46:17.345Z,12.50
2023-04-26T14:48:44.557Z,12.30
2023-04-26T14:51:11.278Z,12.30
2023-04-26T14:53:38.961Z,12.10
2023-04-26T14:56:07.608Z,11.90
2023-04-26T14:58:34.480Z,11.80
2023-04-26T15:01:01.146Z,11.70
2023-04-26T15:03:28.006Z,11.70
2023-04-26T15:05:54.836Z,11.80
2023-04-26T15:08:21.905Z,11.80
2023-04-26T15:10:48.508Z,12.00
2023-04-26T15:13:15.291Z,12.00
2023-04-26T15:15:42.219Z,12.10
2023-04-26T15:18:08.894Z,12.30
2023-04-26T15:20:40.630Z,12.40
2023-04-26T15:23:07.768Z,12.40
2023-04-26T15:25:36.462Z,12.50
2023-04-26T15:28:03.749Z,12.40
2023-04-26T15:30:30.664Z,12.40
2023-04-26T15:32:57.775Z,12.40
2023-04-26T15:35:25.142Z,12.20
2023-04-26T15:37:53.849Z,12.20
2023-04-26T15:40:21.668Z,12.00
2023-04-26T15:42:49.219Z,12.00
2023-04-26T15:45:15.966Z,12.00
2023-04-26T15:47:42.763Z,11.90
2023-04-26T15:50:09.868Z,11.70
2023-04-26T15:52:39.273Z,11.70
2023-04-26T15:55:07.234Z,11.50
2023-04-26T15:57:34.675Z,11.30
2023-04-26T16:00:02.100Z,11.10
2023-04-26T16:02:28.992Z,10.80
2023-04-26T16:04:56.297Z,10.70
2023-04-26T16:07:23.473Z,10.60
2023-04-26T16:09:50.093Z,10.50
2023-04-26T16:12:16.699Z,10.30
2023-04-26T16:14:43.353Z,10.40
2023-04-26T16:17:09.995Z,10.40
2023-04-26T16:19:37.240Z,10.30
2023-04-26T16:22:03.936Z,10.20
2023-04-26T16:24:30.873Z,10.20
2023-04-26T16:26:57.594Z,10.10
2023-04-26T16:29:25.241Z,10.10
2023-04-26T16:31:52.523Z,10.10
2023-04-26T16:34:19.965Z,10.10
2023-04-26T16:36:46.775Z,10.10
2023-04-26T16:39:15.753Z,10.10
2023-04-26T16:41:42.883Z,10.20
2023-04-26T16:44:09.603Z,10.10
2023-04-26T16:46:36.403Z,10.10
2023-04-26T16:49:09.457Z,10.20
2023-04-26T16:51:37.651Z,10.20
2023-04-26T16:54:04.740Z,10.20
2023-04-26T16:56:32.226Z,10.30
2023-04-26T16:58:59.338Z,10.30
2023-04-26T17:01:26.212Z,10.30
2023-04-26T17:03:53.182Z,10.30
2023-04-26T17:06:20.114Z,10.30
2023-04-26T17:08:47.454Z,10.40
2023-04-26T17:11:15.796Z,10.30
2023-04-26T17:13:42.939Z,10.30
2023-04-26T17:16:09.708Z,10.20
2023-04-26T17:18:37.150Z,10.30
2023-04-26T17:21:04.901Z,10.20
2023-04-26T17:23:33.416Z,10.30
2023-04-26T17:26:01.378Z,10.20
2023-04-26T17:28:28.470Z,10.20
2023-04-26T17:30:55.103Z,10.10
2023-04-26T17:33:21.857Z,10.10
2023-04-26T17:35:48.660Z,10.20
2023-04-26T17:38:15.886Z,10.10
2023-04-26T17:40:42.545Z,10.00
2023-04-26T17:43:09.496Z,10.10
2023-04-26T17:45:36.134Z,9.90
2023-04-26T17:48:02.990Z,9.80
2023-04-26T17:50:30.345Z,9.80
2023-04-26T17:52:57.135Z,9.80
2023-04-26T17:55:23.829Z,9.50
2023-04-26T17:57:50.649Z,9.50
2023-04-26T18:00:17.841Z,9.40
2023-04-26T18:02:44.673Z,9.30
2023-04-26T18:05:11.744Z,9.30
2023-04-26T18:07:38.521Z,9.20
2023-04-26T18:10:06.500Z,9.10
2023-04-26T18:12:33.218Z,9.00
2023-04-26T18:14:59.968Z,8.90
2023-04-26T18:17:26.921Z,8.90
2023-04-26T18:19:53.666Z,8.90
2023-04-26T18:22:20.486Z,8.80
2023-04-26T18:24:47.165Z,8.80
2023-04-26T18:27:14.014Z,8.70
2023-04-26T18:29:41.281Z,8.70
2023-04-26T18:32:07.974Z,8.60
2023-04-26T18:34:34.616Z,8.60
2023-04-26T18:37:01.365Z,8.50
2023-04-26T18:39:28.009Z,8.50
2023-04-26T18:41:54.667Z,8.40
2023-04-26T18:44:21.341Z,8.40
2023-04-26T18:46:48.198Z,8.30
2023-04-26T18:49:14.967Z,8.20
2023-04-26T18:51:41.647Z,8.20
2023-04-26T18:54:08.307Z,8.10
2023-04-26T18:56:35.012Z,8.10
2023-04-26T18:59:01.739Z,8.00
2023-04-26T19:01:28.493Z,7.90
2023-04-26T19:03:55.683Z,8.00
2023-04-26T19:06:22.406Z,7.90
2023-04-26T19:08:49.124Z,7.90
2023-04-26T19:11:15.877Z,7.90
2023-04-26T19:13:42.833Z,7.90
2023-04-26T19:16:10.033Z,7.80
2023-04-26T19:18:37.390Z,7.70
2023-04-26T19:21:06.354Z,7.60
2023-04-26T19:23:33.539Z,7.60
2023-04-26T19:26:05.487Z,7.50
2023-04-26T19:28:32.284Z,7.70
2023-04-26T19:30:59.277Z,7.40
2023-04-26T19:33:27.059Z,7.30
2023-04-26T19:35:53.803Z,7.20
2023-04-26T19:38:20.504Z,7.20
2023-04-26T19:40:47.155Z,7.10
2023-04-26T19:43:13.918Z,7.10
2023-04-26T19:45:40.998Z,7.00
2023-04-26T19:48:08.687Z,6.90
2023-04-26T19:50:53.406Z,6.80
2023-04-26T19:53:20.038Z,6.80
2023-04-26T19:55:46.644Z,6.70
2023-04-26T19:58:13.354Z,6.70
2023-04-26T20:00:40.504Z,6.60
2023-04-26T20:03:07.585Z,6.70
2023-04-26T20:05:34.632Z,6.60
2023-04-26T20:08:01.651Z,6.50
2023-04-26T20:10:32.090Z,6.50
2023-04-26T20:12:59.324Z,6.50
2023-04-26T20:15:26.613Z,6.40
2023-04-26T20:17:53.364Z,6.40
2023-04-26T20:20:20.078Z,6.40
2023-04-26T20:22:46.927Z,6.30
2023-04-26T20:25:13.786Z,6.20
2023-04-26T20:27:40.470Z,6.20
2023-04-26T20:30:07.796Z,6.10
2023-04-26T20:32:34.484Z,6.10
2023-04-26T20:35:01.143Z,6.10
2023-04-26T20:37:27.855Z,6.10
2023-04-26T20:39:54.581Z,6.00
2023-04-26T20:42:22.117Z,6.00
2023-04-26T20:44:48.839Z,6.00
2023-04-26T20:47:15.717Z,5.90
2023-04-26T20:49:42.367Z,5.90
2023-04-26T20:52:09.239Z,5.80
2023-04-26T20:54:36.039Z,5.80
2023-04-26T20:57:03.765Z,5.70
2023-04-26T20:59:30.836Z,5.70
2023-04-26T21:01:57.651Z,5.70
2023-04-26T21:04:24.750Z,5.60
2023-04-26T21:06:51.637Z,5.50
2023-04-26T21:09:18.280Z,5.50
2023-04-26T21:11:45.016Z,5.50
2023-04-26T21:14:13.715Z,5.60
2023-04-26T21:16:40.592Z,5.50
2023-04-26T21:19:08.026Z,5.50
2023-04-26T21:21:35.107Z,5.40
2023-04-26T21:24:03.005Z,5.40
2023-04-26T21:26:29.784Z,5.30
2023-04-26T21:28:56.491Z,5.30
2023-04-26T21:31:23.490Z,5.20
2023-04-26T21:33:50.688Z,5.20
2023-04-26T21:36:17.556Z,5.10
2023-04-26T21:38:44.555Z,5.10
2023-04-26T21:41:11.387Z,5.00
2023-04-26T21:43:38.076Z,5.00
2023-04-26T21:46:04.928Z,5.00
2023-04-26T21:48:31.625Z,5.00
2023-04-26T21:50:58.406Z,4.90
2023-04-26T21:53:25.207Z,4.90
2023-04-26T21:55:52.732Z,4.90
2023-04-26T21:58:22.901Z,4.90
2023-04-26T22:00:50.491Z,4.90
2023-04-26T22:03:17.624Z,4.80
2023-04-26T22:05:44.430Z,4.80
2023-04-26T22:08:11.035Z,4.70
2023-04-26T22:10:37.754Z,4.70
2023-04-26T22:13:05.311Z,4.60
2023-04-26T22:15:32.073Z,4.60
2023-04-26T22:17:58.814Z,4.50
2023-04-26T22:20:26.500Z,4.60
2023-04-26T22:22:53.809Z,4.60
2023-04-26T22:25:20.907Z,4.50
2023-04-26T22:27:47.956Z,4.50
2023-04-26T22:30:24.805Z,4.50
2023-04-26T22:32:55.315Z,4.40
2023-04-26T22:35:23.643Z,4.40
2023-04-26T22:37:51.177Z,4.40
2023-04-26T22:40:18.074Z,4.40
2023-04-26T22:42:44.760Z,4.30
2023-04-26T22:45:12.618Z,4.30
2023-04-26T22:47:40.270Z,4.30
2023-04-26T22:50:07.975Z,4.20
2023-04-26T22:52:35.647Z,4.20
2023-04-26T22:55:02.717Z,4.20
2023-04-26T22:57:30.926Z,4.20
2023-04-26T22:59:57.797Z,4.20
2023-04-26T23:02:24.585Z,4.20
2023-04-26T23:04:51.445Z,4.10
2023-04-26T23:07:18.139Z,4.00
2023-04-26T23:09:44.918Z,4.00
2023-04-26T23:12:11.650Z,4.00
2023-04-26T23:14:38.313Z,4.00
2023-04-26T23:17:05.715Z,4.00
2023-04-26T23:19:33.109Z,4.00
2023-04-26T23:21:59.935Z,4.00
2023-04-26T23:24:26.859Z,3.90
2023-04-26T23:26:53.694Z,3.90
2023-04-26T23:29:20.422Z,3.90
2023-04-26T23:31:47.164Z,3.90
2023-04-26T23:34:13.884Z,3.80
2023-04-26T23:36:41.167Z,3.80
2023-04-26T23:39:08.702Z,3.80
2023-04-26T23:41:35.795Z,3.80
2023-04-26T23:44:02.573Z,3.80
2023-04-26T23:46:29.306Z,3.80
2023-04-26T23:48:56.105Z,3.90
2023-04-26T23:51:22.819Z,3.80
2023-04-26T23:53:49.447Z,3.80
2023-04-26T23:56:16.122Z,3.70
2023-04-26T23:58:42.779Z,3.70
